createdAt,value
2019-06-07T00:02:31.765Z,50.80
2019-06-07T00:05:07.675Z,50.85
2019-06-07T00:07:41.027Z,50.91
2019-06-07T00:10:33.193Z,50.71
2019-06-07T00:12:48.656Z,50.93
2019-06-07T00:15:28.663Z,50.99
2019-06-07T00:17:56.333Z,51.11
2019-06-07T00:20:29.476Z,51.35
2019-06-07T00:23:02.739Z,51.27
2019-06-07T00:25:36.066Z,51.60
2019-06-07T00:28:10.586Z,51.82
2019-06-07T00:30:51.587Z,52.33
2019-06-07T00:33:24.055Z,52.37
2019-06-07T00:35:53.645Z,52.48
2019-06-07T00:38:26.803Z,52.49
2019-06-07T00:41:00.137Z,52.90
2019-06-07T00:43:33.399Z,53.18
2019-06-07T00:46:06.731Z,53.64
2019-06-07T00:48:39.992Z,54.03
2019-06-07T00:51:14.032Z,54.53
2019-06-07T00:53:47.801Z,55.00
2019-06-07T00:56:22.209Z,55.33
2019-06-07T00:59:10.665Z,56.08
2019-06-07T01:01:29.865Z,57.47
2019-06-07T01:04:03.184Z,58.65
2019-06-07T01:06:36.462Z,59.30
2019-06-07T01:09:10.302Z,59.81
2019-06-07T01:11:43.578Z,60.05
2019-06-07T01:14:19.384Z,60.28
2019-06-07T01:17:01.276Z,60.72
2019-06-07T01:19:27.858Z,61.13
2019-06-07T01:22:01.237Z,61.38
2019-06-07T01:24:34.721Z,61.21
2019-06-07T01:27:08.158Z,61.27
2019-06-07T01:29:41.416Z,61.56
2019-06-07T01:32:17.504Z,61.67
2019-06-07T01:34:49.254Z,62.03
2019-06-07T01:37:26.185Z,62.43
2019-06-07T01:39:56.995Z,62.72
2019-06-07T01:42:31.150Z,64.11
2019-06-07T01:45:10.352Z,63.26
2019-06-07T01:47:43.532Z,63.09
2019-06-07T01:50:17.243Z,63.37
2019-06-07T01:52:51.110Z,63.84
2019-06-07T01:55:28.751Z,64.12
2019-06-07T01:57:59.085Z,64.35
2019-06-07T02:00:32.906Z,64.35
2019-06-07T02:03:06.413Z,64.29
2019-06-07T02:05:39.632Z,64.33
2019-06-07T02:10:45.032Z,64.46
2019-06-07T02:13:18.782Z,64.12
2019-06-07T02:15:52.005Z,63.98
2019-06-07T02:18:28.241Z,64.17
2019-06-07T02:21:00.533Z,64.35
2019-06-07T02:26:06.861Z,64.23
2019-06-07T02:28:45.527Z,64.20
2019-06-07T02:31:14.551Z,64.18
2019-06-07T02:33:47.855Z,64.02
2019-06-07T02:36:25.459Z,63.85
2019-06-07T02:38:55.563Z,63.89
2019-06-07T02:41:35.240Z,63.72
2019-06-07T02:44:03.665Z,63.48
2019-06-07T02:46:46.725Z,63.45
2019-06-07T02:49:11.324Z,63.56
2019-06-07T02:51:44.577Z,63.84
2019-06-07T02:54:17.977Z,64.09
2019-06-07T02:56:57.947Z,64.26
2019-06-07T02:59:47.065Z,64.46
2019-06-07T03:02:00.078Z,64.70
2019-06-07T03:04:40.459Z,64.81
2019-06-07T03:07:07.776Z,64.78
2019-06-07T03:09:42.399Z,64.99
2019-06-07T03:12:15.057Z,65.03
2019-06-07T03:14:48.370Z,65.11
2019-06-07T03:17:23.273Z,65.42
2019-06-07T03:20:00.963Z,65.63
2019-06-07T03:22:38.017Z,65.37
2019-06-07T03:25:09.296Z,65.34
2019-06-07T03:27:49.425Z,65.17
2019-06-07T03:32:52.314Z,65.01
2019-06-07T03:35:27.617Z,65.22
2019-06-07T03:37:59.938Z,65.31
2019-06-07T03:40:36.864Z,65.26
2019-06-07T03:43:07.603Z,65.34
2019-06-07T03:45:41.662Z,65.37
2019-06-07T03:48:14.602Z,64.96
2019-06-07T03:50:47.913Z,64.80
2019-06-07T03:53:21.183Z,64.72
2019-06-07T03:55:54.539Z,64.54
2019-06-07T03:58:34.691Z,64.55
2019-06-07T04:01:02.304Z,64.89
2019-06-07T04:03:43.612Z,65.07
2019-06-07T04:06:09.985Z,65.16
2019-06-07T13:37:27.650Z,37.44
2019-06-07T13:40:00.503Z,38.58
2019-06-07T13:42:33.846Z,39.68
2019-06-07T13:45:07.366Z,39.31
2019-06-07T13:47:40.721Z,38.42
2019-06-07T13:50:14.008Z,38.58
2019-06-07T13:52:48.497Z,38.47
2019-06-07T13:55:21.979Z,38.82
2019-06-07T13:57:55.457Z,39.09
2019-06-07T14:00:28.724Z,39.24
2019-06-07T14:03:02.084Z,39.38
2019-06-07T14:05:35.247Z,39.43
2019-06-07T14:08:08.386Z,39.51
2019-06-07T14:10:41.477Z,39.62
2019-06-07T14:13:14.715Z,39.55
2019-06-07T14:15:47.971Z,39.63
2019-06-07T14:18:22.513Z,39.65
2019-06-07T14:20:58.826Z,39.78
2019-06-07T14:23:45.932Z,40.26
2019-06-07T14:26:04.601Z,40.17
2019-06-07T14:28:37.958Z,40.21
2019-06-07T14:31:11.219Z,41.02
2019-06-07T14:33:44.603Z,40.64
2019-06-07T14:36:17.911Z,40.68
2019-06-07T14:38:51.141Z,39.67
2019-06-07T14:41:25.181Z,38.99
2019-06-07T14:43:58.408Z,39.20
2019-06-07T14:46:32.157Z,39.69
2019-06-07T14:49:05.560Z,38.84
2019-06-07T14:51:38.989Z,39.07
2019-06-07T14:54:12.371Z,38.27
2019-06-07T14:56:45.725Z,38.48
2019-06-07T14:59:19.199Z,38.87
2019-06-07T15:01:52.535Z,38.76
2019-06-07T15:04:26.463Z,39.31
2019-06-07T15:06:59.578Z,39.45
2019-06-07T15:09:33.129Z,39.35
2019-06-07T15:12:06.291Z,39.06
2019-06-07T15:14:39.969Z,39.41
2019-06-07T15:17:12.676Z,39.13
2019-06-07T15:19:45.812Z,39.35
2019-06-07T15:22:18.869Z,38.90
2019-06-07T15:24:52.097Z,39.43
2019-06-07T15:27:25.440Z,39.26
2019-06-07T15:29:58.480Z,39.56
2019-06-07T15:32:32.676Z,39.62
2019-06-07T15:35:09.139Z,39.59
2019-06-07T15:37:42.579Z,39.45
2019-06-07T15:40:15.759Z,39.53
2019-06-07T15:42:52.849Z,39.48
2019-06-07T15:45:24.268Z,39.43
2019-06-07T15:47:57.939Z,39.46
2019-06-07T15:50:32.178Z,39.58
2019-06-07T15:53:05.108Z,39.22
2019-06-07T15:55:43.792Z,39.25
2019-06-07T15:58:12.867Z,39.07
2019-06-07T16:00:45.929Z,39.53
2019-06-07T16:03:19.296Z,39.44
2019-06-07T16:05:52.638Z,39.50
2019-06-07T16:08:25.778Z,39.46
2019-06-07T16:10:59.086Z,39.34
2019-06-07T16:13:32.555Z,39.50
2019-06-07T16:16:05.736Z,39.72
2019-06-07T16:18:39.682Z,39.71
2019-06-07T16:21:12.767Z,39.91
2019-06-07T16:23:46.138Z,39.56
2019-06-07T16:26:19.062Z,39.72
2019-06-07T16:28:52.322Z,39.47
2019-06-07T16:31:25.358Z,39.85
2019-06-07T16:33:58.601Z,39.68
2019-06-07T16:36:31.933Z,39.38
2019-06-07T16:39:08.717Z,39.24
2019-06-07T16:41:42.865Z,39.65
2019-06-07T16:44:15.837Z,39.58
2019-06-07T16:46:49.189Z,39.79
2019-06-07T16:49:22.694Z,39.88
2019-06-07T16:51:56.010Z,39.88
2019-06-07T16:54:29.268Z,39.82
2019-06-07T16:57:02.659Z,40.09
2019-06-07T16:59:36.802Z,40.09
2019-06-07T17:02:10.241Z,40.29
2019-06-07T17:04:43.616Z,40.41
2019-06-07T17:07:16.884Z,40.33
2019-06-07T17:09:50.092Z,40.26
2019-06-07T17:12:23.396Z,40.38
2019-06-07T17:14:56.967Z,40.20
2019-06-07T17:17:30.427Z,40.43
2019-06-07T17:20:05.191Z,40.46
2019-06-07T17:22:39.123Z,40.50
2019-06-07T17:25:12.190Z,40.74
2019-06-07T17:27:46.331Z,40.37
2019-06-07T17:30:20.709Z,40.70
2019-06-07T17:32:59.157Z,40.89
2019-06-07T17:35:29.056Z,40.91
2019-06-07T17:38:02.384Z,41.07
2019-06-07T17:40:36.419Z,41.18
2019-06-07T17:43:09.691Z,41.24
2019-06-07T17:45:43.451Z,41.27
2019-06-07T17:48:16.406Z,41.47
2019-06-07T17:50:49.993Z,41.72
2019-06-07T17:53:23.398Z,41.81
2019-06-07T17:55:56.651Z,41.99
2019-06-07T17:58:30.095Z,42.09
2019-06-07T18:01:03.341Z,42.21
2019-06-07T18:03:36.696Z,42.35
2019-06-07T18:06:10.047Z,42.38
2019-06-07T18:08:43.704Z,42.51
2019-06-07T18:11:17.862Z,42.53
2019-06-07T18:14:06.564Z,42.75
2019-06-07T18:16:25.496Z,42.92
2019-06-07T18:18:58.863Z,43.11
2019-06-07T18:21:32.153Z,43.27
2019-06-07T18:24:05.862Z,43.39
2019-06-07T18:26:39.154Z,43.52
2019-06-07T18:29:12.487Z,43.69
2019-06-07T18:31:46.742Z,43.86
2019-06-07T18:34:20.035Z,43.97
2019-06-07T18:36:53.358Z,44.17
2019-06-07T18:39:26.698Z,44.32
2019-06-07T18:41:59.848Z,44.50
2019-06-07T18:44:33.198Z,44.71
2019-06-07T18:47:06.556Z,44.86
2019-06-07T18:49:39.867Z,45.03
2019-06-07T18:52:20.421Z,45.10
2019-06-07T18:54:54.981Z,45.31
2019-06-07T18:57:28.916Z,45.54
2019-06-07T19:00:02.290Z,45.66
2019-06-07T19:02:35.542Z,45.80
2019-06-07T19:05:09.799Z,46.09
2019-06-07T19:07:42.403Z,46.23
2019-06-07T19:10:17.077Z,46.38
2019-06-07T19:12:50.834Z,46.66
2019-06-07T19:15:24.118Z,46.78
2019-06-07T19:17:58.142Z,47.00
2019-06-07T19:20:31.290Z,47.17
2019-06-07T19:23:05.110Z,47.30
2019-06-07T19:25:38.391Z,47.48
2019-06-07T19:28:11.654Z,47.55
2019-06-07T19:30:44.997Z,47.61
2019-06-07T19:33:18.245Z,47.80
2019-06-07T19:35:51.579Z,47.98
2019-06-07T19:38:24.844Z,48.25
2019-06-07T19:40:58.156Z,48.36
2019-06-07T19:43:31.441Z,48.58
2019-06-07T19:46:04.772Z,48.79
2019-06-07T19:48:37.685Z,48.81
2019-06-07T19:51:11.054Z,48.92
2019-06-07T19:53:44.119Z,49.11
2019-06-07T19:56:17.474Z,49.39
2019-06-07T19:58:50.621Z,49.62
2019-06-07T20:01:25.277Z,49.77
2019-06-07T20:03:59.927Z,50.01
2019-06-07T20:06:32.777Z,50.28
2019-06-07T20:09:08.445Z,50.50
2019-06-07T20:11:41.722Z,50.69
2019-06-07T20:14:15.069Z,50.84
2019-06-07T20:16:48.398Z,50.95
2019-06-07T20:19:21.660Z,51.04
2019-06-07T20:21:54.887Z,51.28
2019-06-07T20:24:28.047Z,51.41
2019-06-07T20:27:02.324Z,51.43
2019-06-07T20:29:35.572Z,51.43
2019-06-07T20:32:08.999Z,51.46
2019-06-07T20:34:44.799Z,51.40
2019-06-07T20:37:17.422Z,51.86
2019-06-07T20:39:50.035Z,52.20
2019-06-07T20:42:23.198Z,52.26
2019-06-07T20:44:57.522Z,51.88
2019-06-07T20:47:31.574Z,51.93
2019-06-07T20:50:06.610Z,51.99
2019-06-07T20:52:41.012Z,52.02
2019-06-07T20:55:14.311Z,52.32
2019-06-07T20:57:47.075Z,52.41
2019-06-07T21:00:22.026Z,52.53
2019-06-07T21:02:54.493Z,52.74
2019-06-07T21:05:27.104Z,52.85
2019-06-07T21:07:59.760Z,53.12
2019-06-07T21:10:32.374Z,53.35
2019-06-07T21:13:05.927Z,53.19
2019-06-07T21:15:48.252Z,53.23
2019-06-07T21:18:19.578Z,53.19
2019-06-07T21:20:47.670Z,53.24
2019-06-07T21:23:20.931Z,53.29
2019-06-07T21:25:55.017Z,53.34
2019-06-07T21:28:28.341Z,53.27
2019-06-07T21:31:03.284Z,53.29
2019-06-07T21:33:35.311Z,53.34
2019-06-07T21:36:09.767Z,53.42
2019-06-07T21:38:43.090Z,53.53
2019-06-07T21:41:16.331Z,53.62
2019-06-07T21:43:49.442Z,53.84
2019-06-07T21:46:22.607Z,53.94
2019-06-07T21:48:55.936Z,53.99
2019-06-07T21:51:29.969Z,54.04
2019-06-07T21:54:06.765Z,54.10
2019-06-07T21:56:37.945Z,54.25
2019-06-07T21:59:11.330Z,54.32
2019-06-07T22:01:44.390Z,54.38
2019-06-07T22:04:17.775Z,54.48
2019-06-07T22:06:51.116Z,54.70
2019-06-07T22:09:24.586Z,54.82
2019-06-07T22:11:57.917Z,54.95
2019-06-07T22:14:31.462Z,54.63
2019-06-07T22:17:05.852Z,54.66
2019-06-07T22:19:38.950Z,54.77
2019-06-07T22:22:12.932Z,55.04
2019-06-07T22:24:46.223Z,55.22
2019-06-07T22:27:19.527Z,55.17
2019-06-07T22:29:52.866Z,54.99
2019-06-07T22:32:26.123Z,54.84
2019-06-07T22:34:59.465Z,54.88
2019-06-07T22:37:32.706Z,54.86
2019-06-07T22:40:10.552Z,54.80
2019-06-07T22:42:43.479Z,54.78
2019-06-07T22:45:17.142Z,54.61
2019-06-07T22:47:49.976Z,54.55
2019-06-07T22:50:26.095Z,54.40
2019-06-07T22:52:59.451Z,54.53
2019-06-07T22:55:32.791Z,54.54
2019-06-07T22:58:06.045Z,54.53
2019-06-07T23:00:39.839Z,54.56
2019-06-07T23:03:14.900Z,54.50
2019-06-07T23:05:48.236Z,54.46
2019-06-07T23:08:21.563Z,54.55
2019-06-07T23:10:54.913Z,54.62
2019-06-07T23:13:28.168Z,54.58
2019-06-07T23:16:01.702Z,54.58
2019-06-07T23:18:35.018Z,54.75
2019-06-07T23:21:09.603Z,55.07
2019-06-07T23:23:42.484Z,55.29
2019-06-07T23:26:16.206Z,55.32
2019-06-07T23:28:49.491Z,55.62
2019-06-07T23:31:22.799Z,55.92
2019-06-07T23:33:56.060Z,56.37
2019-06-07T23:36:29.403Z,56.65
2019-06-07T23:39:02.665Z,56.78
2019-06-07T23:41:36.899Z,56.91
2019-06-07T23:44:11.028Z,56.92
2019-06-07T23:46:43.882Z,56.90
2019-06-07T23:49:17.604Z,56.90
2019-06-07T23:51:51.015Z,56.98
2019-06-07T23:54:24.261Z,57.21
2019-06-07T23:56:57.636Z,57.41
2019-06-07T23:59:30.771Z,57.59
